createdAt,value
2019-03-11T00:00:16.610Z,5.10
2019-03-11T00:02:44.995Z,5.10
2019-03-11T00:05:13.364Z,5.00
2019-03-11T00:07:41.984Z,5.00
2019-03-11T00:10:10.618Z,4.90
2019-03-11T00:12:38.995Z,4.80
2019-03-11T00:15:09.035Z,4.80
2019-03-11T00:17:37.410Z,4.70
2019-03-11T00:20:07.814Z,4.70
2019-03-11T00:22:36.194Z,4.60
2019-03-11T00:25:05.231Z,4.60
2019-03-11T00:27:33.607Z,4.60
2019-03-11T00:30:02.205Z,4.50
2019-03-11T00:32:30.817Z,4.50
2019-03-11T00:34:59.480Z,4.60
2019-03-11T00:37:28.082Z,4.60
2019-03-11T00:39:56.453Z,4.60
2019-03-11T00:42:25.050Z,4.60
2019-03-11T00:44:53.434Z,4.60
2019-03-11T00:47:22.043Z,4.60
2019-03-11T00:49:50.639Z,4.60
2019-03-11T00:52:19.003Z,4.60
2019-03-11T00:54:47.378Z,4.60
2019-03-11T00:57:15.971Z,4.70
2019-03-11T00:59:44.346Z,4.70
2019-03-11T01:02:12.717Z,4.70
2019-03-11T01:04:41.098Z,4.80
2019-03-11T01:07:09.686Z,4.90
2019-03-11T01:09:38.067Z,4.90
2019-03-11T01:12:06.673Z,5.00
2019-03-11T01:14:36.008Z,5.10
2019-03-11T01:17:04.680Z,5.20
2019-03-11T01:19:33.051Z,5.20
2019-03-11T01:22:01.497Z,5.30
2019-03-11T01:24:29.880Z,5.30
2019-03-11T01:26:58.243Z,5.40
2019-03-11T01:29:26.618Z,5.50
2019-03-11T01:31:55.218Z,5.50
2019-03-11T01:34:23.823Z,5.50
2019-03-11T01:36:52.435Z,5.60
2019-03-11T01:39:20.811Z,5.70
2019-03-11T01:41:49.414Z,5.70
2019-03-11T01:44:17.788Z,5.80
2019-03-11T01:46:46.150Z,5.90
2019-03-11T01:49:14.533Z,6.00
2019-03-11T01:51:42.911Z,6.00
2019-03-11T01:54:11.302Z,6.10
2019-03-11T01:56:39.686Z,6.10
2019-03-11T01:59:08.283Z,6.10
2019-03-11T02:01:36.663Z,6.00
2019-03-11T02:04:05.031Z,6.00
2019-03-11T02:06:33.643Z,5.90
2019-03-11T02:09:02.242Z,5.90
2019-03-11T02:11:30.847Z,5.90
2019-03-11T02:13:59.442Z,5.90
2019-03-11T02:16:27.827Z,5.90
2019-03-11T02:18:56.192Z,5.80
2019-03-11T02:21:24.571Z,5.80
2019-03-11T02:23:53.166Z,5.80
2019-03-11T02:26:21.773Z,5.90
2019-03-11T02:28:50.171Z,5.90
2019-03-11T02:31:18.784Z,5.90
2019-03-11T02:33:47.153Z,6.00
2019-03-11T02:36:18.252Z,6.00
2019-03-11T02:38:46.619Z,6.00
2019-03-11T02:41:15.003Z,6.00
2019-03-11T02:43:43.367Z,6.10
2019-03-11T02:46:11.979Z,6.10
2019-03-11T02:48:40.342Z,6.10
2019-03-11T02:51:08.723Z,6.00
2019-03-11T02:53:37.091Z,6.00
2019-03-11T02:56:05.695Z,6.00
2019-03-11T02:58:34.067Z,6.00
2019-03-11T03:01:10.328Z,5.90
2019-03-11T03:03:46.679Z,5.90
2019-03-11T03:06:16.921Z,5.80
2019-03-11T03:08:45.300Z,5.80
2019-03-11T03:11:13.900Z,5.80
2019-03-11T03:13:42.327Z,5.80
2019-03-11T03:16:10.703Z,5.90
2019-03-11T03:18:39.304Z,6.00
2019-03-11T03:21:07.671Z,6.10
2019-03-11T03:23:36.055Z,6.20
2019-03-11T03:26:04.659Z,6.20
2019-03-11T03:28:33.033Z,6.30
2019-03-11T03:31:01.417Z,6.30
2019-03-11T03:33:30.092Z,6.30
2019-03-11T03:35:58.491Z,6.30
2019-03-11T03:38:30.910Z,6.20
2019-03-11T03:40:56.966Z,6.10
2019-03-11T03:43:25.392Z,6.00
2019-03-11T03:45:54.005Z,6.00
2019-03-11T03:48:22.445Z,5.90
2019-03-11T03:50:50.941Z,5.90
2019-03-11T03:53:19.318Z,6.00
2019-03-11T03:55:47.699Z,6.00
2019-03-11T03:58:16.081Z,6.00
2019-03-11T04:00:44.674Z,6.10
2019-03-11T04:03:13.288Z,6.10
2019-03-11T04:05:41.646Z,6.20
2019-03-11T04:08:10.022Z,6.20
2019-03-11T04:10:38.401Z,6.30
2019-03-11T04:13:06.777Z,6.30
2019-03-11T04:15:35.155Z,6.30
2019-03-11T04:18:05.356Z,6.30
2019-03-11T04:20:33.968Z,6.30
2019-03-11T04:23:02.512Z,6.30
2019-03-11T04:25:31.191Z,6.30
2019-03-11T04:27:59.555Z,6.30
2019-03-11T04:30:28.670Z,6.30
2019-03-11T04:32:57.046Z,6.30
2019-03-11T04:35:25.663Z,6.30
2019-03-11T04:37:54.255Z,6.20
2019-03-11T04:40:22.689Z,6.00
2019-03-11T04:42:51.039Z,5.80
2019-03-11T04:45:19.714Z,5.70
2019-03-11T04:47:48.087Z,5.50
2019-03-11T04:50:18.897Z,5.40
2019-03-11T04:52:47.294Z,5.30
2019-03-11T04:55:16.510Z,5.10
2019-03-11T04:57:48.174Z,5.00
2019-03-11T05:00:19.387Z,4.90
2019-03-11T05:02:47.983Z,4.80
2019-03-11T05:05:16.358Z,4.80
2019-03-11T05:07:44.951Z,4.70
2019-03-11T05:10:16.188Z,4.70
2019-03-11T05:12:44.510Z,4.60
2019-03-11T05:15:14.282Z,4.60
2019-03-11T05:17:42.711Z,4.60
2019-03-11T05:20:15.722Z,4.60
2019-03-11T05:22:44.109Z,4.50
2019-03-11T05:25:14.042Z,4.50
2019-03-11T05:27:42.419Z,4.50
2019-03-11T05:30:18.314Z,4.40
2019-03-11T05:32:46.764Z,4.50
2019-03-11T05:35:15.150Z,4.40
2019-03-11T05:37:43.739Z,4.50
2019-03-11T05:40:17.936Z,4.50
2019-03-11T05:42:46.536Z,4.50
2019-03-11T05:45:18.516Z,4.50
2019-03-11T05:47:46.955Z,4.40
2019-03-11T05:50:16.267Z,4.40
2019-03-11T05:52:44.650Z,4.40
2019-03-11T05:55:13.607Z,4.40
2019-03-11T05:57:42.282Z,4.40
2019-03-11T06:00:22.906Z,4.40
2019-03-11T06:02:51.291Z,4.40
2019-03-11T06:05:19.885Z,4.40
2019-03-11T06:07:48.489Z,4.50
2019-03-11T06:10:16.929Z,4.50
2019-03-11T06:12:45.309Z,4.60
2019-03-11T06:15:14.774Z,4.70
2019-03-11T06:17:43.197Z,4.80
2019-03-11T06:20:15.931Z,4.90
2019-03-11T06:22:44.535Z,4.90
2019-03-11T06:25:12.911Z,4.90
2019-03-11T06:27:41.291Z,4.90
2019-03-11T06:30:10.368Z,4.90
2019-03-11T06:32:38.741Z,4.90
2019-03-11T06:35:07.586Z,4.80
2019-03-11T06:37:35.958Z,4.80
2019-03-11T06:40:07.713Z,4.80
2019-03-11T06:42:36.328Z,4.80
2019-03-11T06:45:06.850Z,4.90
2019-03-11T06:47:35.447Z,4.90
2019-03-11T06:50:05.894Z,4.90
2019-03-11T06:52:34.483Z,5.00
2019-03-11T06:55:03.039Z,5.10
2019-03-11T06:57:31.439Z,5.20
2019-03-11T07:00:00.053Z,5.40
2019-03-11T07:02:28.415Z,5.80
2019-03-11T07:04:57.021Z,6.30
2019-03-11T07:07:25.623Z,6.50
2019-03-11T07:09:53.999Z,6.70
2019-03-11T07:12:22.599Z,7.10
2019-03-11T07:14:50.982Z,7.40
2019-03-11T07:17:19.354Z,7.70
2019-03-11T07:19:47.979Z,8.10
2019-03-11T07:22:16.398Z,8.10
2019-03-11T07:24:45.018Z,8.30
2019-03-11T07:27:13.611Z,8.80
2019-03-11T07:29:42.206Z,9.30
2019-03-11T07:32:10.818Z,9.40
2019-03-11T07:34:39.182Z,9.40
2019-03-11T07:37:07.897Z,9.70
2019-03-11T07:39:36.248Z,10.10
2019-03-11T07:42:05.395Z,9.90
2019-03-11T07:44:33.767Z,9.30
2019-03-11T07:47:02.374Z,9.00
2019-03-11T07:49:30.967Z,9.50
2019-03-11T07:51:59.374Z,9.50
2019-03-11T07:54:35.535Z,10.40
2019-03-11T07:56:58.102Z,11.60
2019-03-11T07:59:26.483Z,12.70
2019-03-11T08:01:54.867Z,13.60
2019-03-11T08:04:23.239Z,14.00
2019-03-11T08:06:51.847Z,14.50
2019-03-11T08:09:20.447Z,14.90
2019-03-11T08:11:48.827Z,15.10
2019-03-11T08:14:17.233Z,14.70
2019-03-11T08:16:45.856Z,14.20
2019-03-11T08:19:14.223Z,14.20
2019-03-11T08:21:42.828Z,14.40
2019-03-11T08:24:11.209Z,15.30
2019-03-11T08:26:39.577Z,15.10
2019-03-11T08:29:08.178Z,14.10
2019-03-11T08:31:36.555Z,13.00
2019-03-11T08:34:04.934Z,12.00
2019-03-11T08:36:33.539Z,11.30
2019-03-11T08:39:02.155Z,10.70
2019-03-11T08:41:30.535Z,11.80
2019-03-11T08:43:59.157Z,13.10
2019-03-11T08:46:27.757Z,14.20
2019-03-11T08:48:56.368Z,15.30
2019-03-11T08:51:24.738Z,14.70
2019-03-11T08:53:53.124Z,13.60
2019-03-11T08:56:21.494Z,12.40
2019-03-11T08:58:50.105Z,11.40
2019-03-11T09:01:18.658Z,10.70
2019-03-11T09:03:48.061Z,10.20
2019-03-11T09:06:16.744Z,9.80
2019-03-11T09:08:45.121Z,9.40
2019-03-11T09:11:13.785Z,9.20
2019-03-11T09:13:42.163Z,9.00
2019-03-11T09:16:10.768Z,9.00
2019-03-11T09:18:39.359Z,9.10
2019-03-11T09:21:07.795Z,9.00
2019-03-11T09:23:36.395Z,8.90
2019-03-11T09:26:04.845Z,9.50
2019-03-11T09:28:33.653Z,9.90
2019-03-11T09:31:02.079Z,9.60
2019-03-11T09:33:30.677Z,9.20
2019-03-11T09:35:59.299Z,8.90
2019-03-11T09:38:27.886Z,8.60
2019-03-11T09:40:56.567Z,8.60
2019-03-11T09:43:27.047Z,8.60
2019-03-11T09:45:55.265Z,8.50
2019-03-11T09:48:23.629Z,8.30
2019-03-11T09:50:52.231Z,8.20
2019-03-11T09:53:20.602Z,8.60
2019-03-11T09:55:48.982Z,10.80
2019-03-11T09:58:17.579Z,13.90
2019-03-11T10:00:45.958Z,15.00
2019-03-11T10:03:14.458Z,15.30
2019-03-11T10:05:42.839Z,16.40
2019-03-11T10:08:11.212Z,17.40
2019-03-11T10:10:39.826Z,17.60
2019-03-11T10:13:08.451Z,18.70
2019-03-11T10:15:36.826Z,18.70
2019-03-11T10:18:05.426Z,18.60
2019-03-11T10:20:34.028Z,17.80
2019-03-11T10:23:02.406Z,16.80
2019-03-11T10:25:31.018Z,16.50
2019-03-11T10:27:59.624Z,15.60
2019-03-11T10:30:27.994Z,15.00
2019-03-11T10:32:56.373Z,13.40
2019-03-11T10:35:31.999Z,13.20
2019-03-11T10:37:55.074Z,14.00
2019-03-11T10:40:24.807Z,14.30
2019-03-11T10:42:53.422Z,14.80
2019-03-11T10:45:30.557Z,15.60
2019-03-11T10:47:52.407Z,14.40
2019-03-11T10:50:21.451Z,13.60
2019-03-11T10:52:49.826Z,12.40
2019-03-11T10:55:23.179Z,12.80
2019-03-11T10:57:51.633Z,15.50
2019-03-11T11:00:26.227Z,17.80
2019-03-11T11:02:54.674Z,20.10
2019-03-11T11:05:23.271Z,21.60
2019-03-11T11:07:51.853Z,21.90
2019-03-11T11:10:20.297Z,22.40
2019-03-11T11:12:48.726Z,23.30
2019-03-11T11:15:25.045Z,22.90
2019-03-11T11:17:53.494Z,22.00
2019-03-11T11:20:22.612Z,19.80
2019-03-11T11:22:51.951Z,17.40
2019-03-11T11:25:22.545Z,14.70
2019-03-11T11:27:50.917Z,13.10
2019-03-11T11:30:21.265Z,12.20
2019-03-11T11:32:49.985Z,11.50
2019-03-11T11:35:18.590Z,12.40
2019-03-11T11:37:47.212Z,13.50
2019-03-11T11:40:23.541Z,13.10
2019-03-11T11:42:52.157Z,14.10
2019-03-11T11:45:31.116Z,16.80
2019-03-11T11:47:59.502Z,19.20
2019-03-11T11:50:28.103Z,18.60
2019-03-11T11:52:56.771Z,17.80
2019-03-11T11:55:25.457Z,15.90
2019-03-11T11:57:53.890Z,14.30
2019-03-11T12:00:31.071Z,13.10
2019-03-11T12:02:59.446Z,12.30
2019-03-11T12:05:27.889Z,11.40
2019-03-11T12:07:56.587Z,10.90
2019-03-11T12:10:29.081Z,10.70
2019-03-11T12:12:57.460Z,10.40
2019-03-11T12:15:25.860Z,10.20
2019-03-11T12:17:54.461Z,9.80
2019-03-11T12:20:29.694Z,9.50
2019-03-11T12:22:58.131Z,9.60
2019-03-11T12:25:26.519Z,9.70
2019-03-11T12:27:57.913Z,9.70
2019-03-11T12:30:27.680Z,9.80
2019-03-11T12:32:56.123Z,9.80
2019-03-11T12:35:24.812Z,9.80
2019-03-11T12:37:53.349Z,11.30
2019-03-11T12:40:21.974Z,13.70
2019-03-11T12:42:50.345Z,14.40
2019-03-11T12:45:21.161Z,15.50
2019-03-11T12:47:50.155Z,16.00
2019-03-11T12:50:29.426Z,15.30
2019-03-11T12:52:57.801Z,14.80
2019-03-11T12:55:26.178Z,14.80
2019-03-11T12:57:54.562Z,15.20
2019-03-11T13:00:23.996Z,15.40
2019-03-11T13:02:52.918Z,15.10
2019-03-11T13:05:21.371Z,14.20
2019-03-11T13:07:49.755Z,13.20
2019-03-11T13:10:27.153Z,13.90
2019-03-11T13:12:55.649Z,16.20
2019-03-11T13:15:24.457Z,16.80
2019-03-11T13:17:53.132Z,16.60
2019-03-11T13:20:32.169Z,17.10
2019-03-11T13:23:00.826Z,17.60
2019-03-11T13:25:29.418Z,17.20
2019-03-11T13:27:57.822Z,15.70
2019-03-11T13:30:26.195Z,14.50
2019-03-11T13:32:54.574Z,13.60
2019-03-11T13:35:24.748Z,12.40
2019-03-11T13:37:53.082Z,11.80
2019-03-11T13:40:21.434Z,11.90
2019-03-11T13:42:49.815Z,13.90
2019-03-11T13:45:18.751Z,15.60
2019-03-11T13:47:47.307Z,17.00
2019-03-11T13:50:17.556Z,17.30
2019-03-11T13:52:45.931Z,17.80
2019-03-11T13:55:15.576Z,18.90
2019-03-11T13:57:44.104Z,17.90
2019-03-11T14:00:18.038Z,16.80
2019-03-11T14:02:46.487Z,15.70
2019-03-11T14:05:15.095Z,14.70
2019-03-11T14:07:43.476Z,14.20
2019-03-11T14:10:13.091Z,13.40
2019-03-11T14:12:41.711Z,12.70
2019-03-11T14:15:12.490Z,12.90
2019-03-11T14:17:41.097Z,12.80
2019-03-11T14:20:11.510Z,13.30
2019-03-11T14:22:39.883Z,13.60
2019-03-11T14:25:10.139Z,14.00
2019-03-11T14:27:38.744Z,14.30
2019-03-11T14:30:21.852Z,14.40
2019-03-11T14:32:50.478Z,13.90
2019-03-11T14:35:19.329Z,13.50
2019-03-11T14:37:48.142Z,13.00
2019-03-11T14:40:17.996Z,12.70
2019-03-11T14:42:46.381Z,12.50
2019-03-11T14:45:22.535Z,12.40
2019-03-11T14:47:51.134Z,12.20
2019-03-11T14:50:19.515Z,12.20
2019-03-11T14:52:47.981Z,12.10
2019-03-11T14:55:16.952Z,12.20
2019-03-11T14:57:45.395Z,12.10
2019-03-11T15:00:20.408Z,12.20
2019-03-11T15:02:48.914Z,12.10
2019-03-11T15:05:18.443Z,11.90
2019-03-11T15:07:47.086Z,11.80
2019-03-11T15:10:17.291Z,11.70
2019-03-11T15:12:45.959Z,11.60
2019-03-11T15:15:20.263Z,11.70
2019-03-11T15:17:48.647Z,11.60
2019-03-11T15:20:17.057Z,11.40
2019-03-11T15:22:45.434Z,11.40
2019-03-11T15:25:14.953Z,11.30
2019-03-11T15:27:43.349Z,11.20
2019-03-11T15:30:17.265Z,11.00
2019-03-11T15:32:45.733Z,10.70
2019-03-11T15:35:14.170Z,10.60
2019-03-11T15:37:42.779Z,10.50
2019-03-11T15:40:18.680Z,10.20
2019-03-11T15:42:47.290Z,9.90
2019-03-11T15:45:19.059Z,9.70
2019-03-11T15:47:47.623Z,9.70
2019-03-11T15:50:27.807Z,9.70
2019-03-11T15:52:56.186Z,9.80
2019-03-11T15:55:24.799Z,9.80
2019-03-11T15:57:53.187Z,9.80
2019-03-11T16:00:22.707Z,9.80
2019-03-11T16:02:51.576Z,9.90
2019-03-11T16:05:23.682Z,9.90
2019-03-11T16:07:52.051Z,9.80
2019-03-11T16:10:20.935Z,9.70
2019-03-11T16:12:49.314Z,9.60
2019-03-11T16:15:18.121Z,9.50
2019-03-11T16:17:46.851Z,9.30
2019-03-11T16:20:23.207Z,9.10
2019-03-11T16:22:51.729Z,8.90
2019-03-11T16:25:20.214Z,8.80
2019-03-11T16:27:48.812Z,8.60
2019-03-11T16:30:19.101Z,8.60
2019-03-11T16:32:58.220Z,8.50
2019-03-11T16:35:17.917Z,8.40
2019-03-11T16:37:46.295Z,8.30
2019-03-11T16:40:15.372Z,8.40
2019-03-11T16:42:43.751Z,8.40
2019-03-11T16:45:13.658Z,8.40
2019-03-11T16:47:42.265Z,8.40
2019-03-11T16:50:16.570Z,8.30
2019-03-11T16:52:45.180Z,8.20
2019-03-11T16:55:19.679Z,8.20
2019-03-11T16:57:48.055Z,8.10
2019-03-11T17:00:18.943Z,8.10
2019-03-11T17:02:47.316Z,8.00
2019-03-11T17:05:15.762Z,8.00
2019-03-11T17:07:44.127Z,7.90
2019-03-11T17:10:15.444Z,7.90
2019-03-11T17:12:44.037Z,7.90
2019-03-11T17:15:12.780Z,7.70
2019-03-11T17:17:41.155Z,7.60
2019-03-11T17:20:12.393Z,7.60
2019-03-11T17:22:40.769Z,7.50
2019-03-11T17:25:11.191Z,7.50
2019-03-11T17:27:39.635Z,7.40
2019-03-11T17:30:25.359Z,7.30
2019-03-11T17:32:53.731Z,7.20
2019-03-11T17:35:22.114Z,7.20
2019-03-11T17:37:50.486Z,7.20
2019-03-11T17:40:20.222Z,7.10
2019-03-11T17:42:49.024Z,7.00
2019-03-11T17:45:17.675Z,7.00
2019-03-11T17:47:46.050Z,6.90
2019-03-11T17:50:20.196Z,6.90
2019-03-11T17:52:48.715Z,6.90
2019-03-11T17:55:18.248Z,6.90
2019-03-11T17:57:47.196Z,6.80
2019-03-11T18:00:27.420Z,6.80
2019-03-11T18:02:55.789Z,6.70
2019-03-11T18:05:24.285Z,6.60
2019-03-11T18:07:52.886Z,6.60
2019-03-11T18:10:21.254Z,6.50
2019-03-11T18:12:49.632Z,6.50
2019-03-11T18:15:18.070Z,6.60
2019-03-11T18:17:46.510Z,6.50
2019-03-11T18:20:19.008Z,6.50
2019-03-11T18:22:47.519Z,6.50
2019-03-11T18:25:17.903Z,6.50
2019-03-11T18:27:46.293Z,6.40
2019-03-11T18:30:23.840Z,6.40
2019-03-11T18:32:52.256Z,6.40
2019-03-11T18:35:21.011Z,6.30
2019-03-11T18:37:49.720Z,6.30
2019-03-11T18:40:19.146Z,6.30
2019-03-11T18:42:47.575Z,6.20
2019-03-11T18:45:17.128Z,6.20
2019-03-11T18:47:45.987Z,6.20
2019-03-11T18:50:24.532Z,6.20
2019-03-11T18:52:53.123Z,6.10
2019-03-11T18:55:21.723Z,6.10
2019-03-11T18:57:50.129Z,6.10
2019-03-11T19:00:19.686Z,6.10
2019-03-11T19:02:48.062Z,6.10
2019-03-11T19:05:20.523Z,6.00
2019-03-11T19:07:49.238Z,6.00
2019-03-11T19:10:17.952Z,5.90
2019-03-11T19:12:46.597Z,6.00
2019-03-11T19:15:20.429Z,5.90
2019-03-11T19:17:48.857Z,5.90
2019-03-11T19:20:18.994Z,5.90
2019-03-11T19:22:47.695Z,6.00
2019-03-11T19:25:16.501Z,6.00
2019-03-11T19:27:44.932Z,5.90
2019-03-11T19:30:16.015Z,5.90
2019-03-11T19:32:44.392Z,5.90
2019-03-11T19:35:13.026Z,5.90
2019-03-11T19:37:41.590Z,5.90
2019-03-11T19:40:15.073Z,5.90
2019-03-11T19:42:43.705Z,5.90
2019-03-11T19:45:13.903Z,5.90
2019-03-11T19:47:42.255Z,5.90
2019-03-11T19:50:15.201Z,5.80
2019-03-11T19:52:43.792Z,5.90
2019-03-11T19:55:12.642Z,5.90
2019-03-11T19:57:41.127Z,5.90
2019-03-11T20:00:20.961Z,5.90
2019-03-11T20:02:49.541Z,5.90
2019-03-11T20:05:23.575Z,5.90
2019-03-11T20:07:52.115Z,6.00
2019-03-11T20:10:20.932Z,6.00
2019-03-11T20:12:49.314Z,6.10
2019-03-11T20:15:18.166Z,6.10
2019-03-11T20:17:47.048Z,6.10
2019-03-11T20:20:16.983Z,6.10
2019-03-11T20:22:45.696Z,6.10
2019-03-11T20:25:17.393Z,6.10
2019-03-11T20:27:45.810Z,6.10
2019-03-11T20:30:19.382Z,6.10
2019-03-11T20:32:47.807Z,6.10
2019-03-11T20:35:17.715Z,6.10
2019-03-11T20:37:46.473Z,6.10
2019-03-11T20:40:15.240Z,6.10
2019-03-11T20:42:44.075Z,6.10
2019-03-11T20:45:17.371Z,6.20
2019-03-11T20:47:45.911Z,6.20
2019-03-11T20:50:16.166Z,6.20
2019-03-11T20:52:44.876Z,6.20
2019-03-11T20:55:19.847Z,6.20
2019-03-11T20:57:48.397Z,6.20
2019-03-11T21:00:22.516Z,6.20
2019-03-11T21:02:50.948Z,6.20
2019-03-11T21:05:31.178Z,6.20
2019-03-11T21:07:59.576Z,6.20
2019-03-11T21:10:28.000Z,6.30
2019-03-11T21:12:56.458Z,6.30
2019-03-11T21:15:25.100Z,6.40
2019-03-11T21:17:53.540Z,6.40
2019-03-11T21:20:22.025Z,6.40
2019-03-11T21:22:50.481Z,6.40
2019-03-11T21:25:21.073Z,6.40
2019-03-11T21:27:49.509Z,6.40
2019-03-11T21:30:22.295Z,6.40
2019-03-11T21:32:51.055Z,6.40
2019-03-11T21:35:19.840Z,6.40
2019-03-11T21:37:48.653Z,6.30
2019-03-11T21:40:21.866Z,6.30
2019-03-11T21:42:50.731Z,6.30
2019-03-11T21:45:19.237Z,6.30
2019-03-11T21:47:50.720Z,6.30
2019-03-11T21:50:22.297Z,6.20
2019-03-11T21:52:50.751Z,6.10
2019-03-11T21:55:19.234Z,6.00
2019-03-11T21:57:47.964Z,5.90
2019-03-11T22:00:32.901Z,5.80
2019-03-11T22:02:51.562Z,5.80
2019-03-11T22:05:20.078Z,5.70
2019-03-11T22:07:48.746Z,5.60
2019-03-11T22:10:18.061Z,5.60
2019-03-11T22:12:46.661Z,5.50
2019-03-11T22:15:26.028Z,5.50
2019-03-11T22:17:54.394Z,5.40
2019-03-11T22:20:22.998Z,5.40
2019-03-11T22:22:52.235Z,5.40
2019-03-11T22:25:21.455Z,5.40
2019-03-11T22:27:50.050Z,5.40
2019-03-11T22:30:23.168Z,5.40
2019-03-11T22:32:51.894Z,5.40
2019-03-11T22:35:20.358Z,5.40
2019-03-11T22:37:49.472Z,5.40
2019-03-11T22:40:19.007Z,5.40
2019-03-11T22:42:47.375Z,5.40
2019-03-11T22:45:23.095Z,5.30
2019-03-11T22:47:52.017Z,5.30
2019-03-11T22:50:21.013Z,5.40
2019-03-11T22:52:49.421Z,5.30
2019-03-11T22:55:19.163Z,5.40
2019-03-11T22:57:47.923Z,5.40
2019-03-11T23:00:35.621Z,5.30
2019-03-11T23:03:06.830Z,5.20
2019-03-11T23:05:34.751Z,5.00
2019-03-11T23:08:03.147Z,4.90
2019-03-11T23:10:31.528Z,4.80
2019-03-11T23:12:59.895Z,4.80
2019-03-11T23:15:28.261Z,4.80
2019-03-11T23:17:56.935Z,4.70
2019-03-11T23:20:25.308Z,4.70
2019-03-11T23:22:53.916Z,4.70
2019-03-11T23:25:22.283Z,4.70
2019-03-11T23:27:50.663Z,4.70
2019-03-11T23:30:19.174Z,4.70
2019-03-11T23:32:47.550Z,4.70
2019-03-11T23:35:15.919Z,4.70
2019-03-11T23:37:44.299Z,4.80
2019-03-11T23:40:12.670Z,4.90
2019-03-11T23:42:41.046Z,4.90
2019-03-11T23:45:10.895Z,5.00
2019-03-11T23:47:39.507Z,5.00
2019-03-11T23:50:13.011Z,4.80
2019-03-11T23:52:41.623Z,4.80
2019-03-11T23:55:10.931Z,4.80
2019-03-11T23:57:39.543Z,4.70
